Time;durP1;ratioP1;P1;durP2;ratioP2;P2;SDS_P1;SDS_P2;PMS_P1;PMS_P2;Temp;Humidity;BMP_temperature;BMP_pressure;BME280_temperature;BME280_humidity;BME280_pressure;Samples;Min_cycle;Max_cycle;Signal;HPM_P1;HPM_P2
2022/12/16 00:01:12;;;;;;;135.38;66.60;;;;;;;-5.71;100.00;100629.34;5005470;28;21043;-71
2022/12/16 00:03:40;;;;;;;136.13;67.40;;;;;;;-5.74;100.00;100624.53;5008501;28;20045;-72
2022/12/16 00:06:08;;;;;;;131.27;64.95;;;;;;;-5.75;100.00;100628.34;5011159;28;20069;-70
2022/12/16 00:08:37;;;;;;;135.23;63.72;;;;;;;-5.83;100.00;100623.66;5007889;28;20052;-73
2022/12/16 00:11:04;;;;;;;127.05;59.13;;;;;;;-5.72;100.00;100635.03;5015136;28;20049;-73
2022/12/16 00:13:32;;;;;;;139.38;64.40;;;;;;;-5.73;100.00;100628.81;5011772;28;20049;-72
2022/12/16 00:16:05;;;;;;;124.32;60.53;;;;;;;-5.76;100.00;100644.78;5013609;28;20045;-73
2022/12/16 00:18:32;;;;;;;121.47;58.65;;;;;;;-5.83;100.00;100634.41;5000998;28;20055;-71
2022/12/16 00:20:59;;;;;;;116.70;58.78;;;;;;;-5.89;100.00;100624.81;5009237;28;20045;-72
2022/12/16 00:23:27;;;;;;;129.45;60.00;;;;;;;-5.81;100.00;100636.78;5007578;28;20049;-73
2022/12/16 00:25:53;;;;;;;134.43;61.17;;;;;;;-5.80;100.00;100635.69;5009362;28;20557;-72
2022/12/16 00:28:21;;;;;;;125.78;61.40;;;;;;;-5.87;100.00;100632.59;5005003;28;20910;-72
2022/12/16 00:30:50;;;;;;;128.68;60.97;;;;;;;-5.90;100.00;100627.78;5008333;28;20060;-71
2022/12/16 00:33:18;;;;;;;118.32;57.50;;;;;;;-5.87;100.00;100638.75;5009806;28;20142;-73
2022/12/16 00:35:46;;;;;;;127.53;61.25;;;;;;;-5.90;100.00;100628.56;5009509;28;20650;-72
2022/12/16 00:38:13;;;;;;;119.53;58.40;;;;;;;-5.89;100.00;100632.06;5018149;28;20059;-73
2022/12/16 00:40:40;;;;;;;127.55;59.78;;;;;;;-5.94;100.00;100629.47;5007420;28;20063;-73
2022/12/16 00:43:06;;;;;;;117.80;56.80;;;;;;;-5.92;100.00;100643.44;5010231;28;20111;-73
2022/12/16 00:45:34;;;;;;;125.88;59.58;;;;;;;-5.94;100.00;100638.31;5008970;28;20156;-71
2022/12/16 00:48:01;;;;;;;123.90;58.53;;;;;;;-5.97;100.00;100640.81;5007606;28;20253;-73
2022/12/16 00:50:27;;;;;;;111.85;56.75;;;;;;;-5.96;100.00;100643.22;5008780;28;20049;-72
2022/12/16 00:52:54;;;;;;;125.55;57.63;;;;;;;-5.99;100.00;100637.59;5017197;28;20041;-67
2022/12/16 00:55:20;;;;;;;122.32;60.83;;;;;;;-6.00;100.00;100634.09;5027249;28;20056;-73
2022/12/16 00:57:47;;;;;;;125.20;60.42;;;;;;;-5.98;100.00;100642.69;5027274;28;20860;-71
2022/12/16 01:00:15;;;;;;;121.65;59.95;;;;;;;-6.13;100.00;100623.25;5030988;28;20058;-71
2022/12/16 01:02:43;;;;;;;129.50;61.08;;;;;;;-6.04;100.00;100641.16;5031776;28;20060;-72
2022/12/16 01:05:12;;;;;;;125.97;59.70;;;;;;;-6.14;100.00;100637.81;5032776;28;20089;-71
2022/12/16 01:07:38;;;;;;;119.43;60.13;;;;;;;-6.11;100.00;100640.72;5033284;28;20501;-71
2022/12/16 01:10:06;;;;;;;131.85;60.92;;;;;;;-6.08;100.00;100642.00;5030818;28;20056;-72
2022/12/16 01:12:35;;;;;;;134.45;62.50;;;;;;;-6.11;100.00;100646.09;5032271;28;20464;-71
2022/12/16 01:15:04;;;;;;;130.27;62.25;;;;;;;-6.14;100.00;100641.28;5030231;28;20049;-72
2022/12/16 01:17:30;;;;;;;119.85;57.63;;;;;;;-6.17;100.00;100649.16;5031422;28;20053;-71
2022/12/16 01:19:57;;;;;;;119.50;57.50;;;;;;;-6.17;100.00;100655.31;5031323;28;20111;-72
2022/12/16 01:22:23;;;;;;;123.68;55.92;;;;;;;-6.12;100.00;100654.47;5031599;28;20052;-72
2022/12/16 01:24:50;;;;;;;128.98;59.60;;;;;;;-6.12;100.00;100657.97;5047221;28;20615;-71
2022/12/16 01:27:16;;;;;;;123.57;59.50;;;;;;;-6.16;100.00;100665.03;5034118;28;20053;-72
2022/12/16 01:29:43;;;;;;;121.00;58.72;;;;;;;-6.22;100.00;100663.47;5034084;28;20838;-71
2022/12/16 01:32:13;;;;;;;117.93;58.20;;;;;;;-6.24;100.00;100675.63;5031299;28;20386;-72
2022/12/16 01:34:39;;;;;;;120.32;58.85;;;;;;;-6.25;100.00;100664.06;5029621;28;20041;-72
2022/12/16 01:37:09;;;;;;;125.10;57.65;;;;;;;-6.26;100.00;100667.84;5031863;28;20073;-72
2022/12/16 01:39:36;;;;;;;122.90;57.72;;;;;;;-6.26;100.00;100664.34;5018225;28;20050;-72
2022/12/16 01:42:03;;;;;;;126.95;60.05;;;;;;;-6.26;100.00;100670.53;5018671;28;20060;-72
2022/12/16 01:44:29;;;;;;;120.05;56.25;;;;;;;-6.30;100.00;100672.19;5032910;28;20045;-71
2022/12/16 01:47:02;;;;;;;125.00;59.42;;;;;;;-6.26;100.00;100677.81;5029690;28;20530;-72
2022/12/16 01:49:36;;;;;;;110.32;54.75;;;;;;;-6.26;100.00;100675.91;5025300;28;20056;-71
2022/12/16 01:52:05;;;;;;;121.07;59.05;;;;;;;-6.26;100.00;100678.63;5019815;28;20037;-73
2022/12/16 01:54:41;;;;;;;125.25;57.65;;;;;;;-6.28;100.00;100674.59;5028170;28;20045;-72
2022/12/16 01:57:12;;;;;;;113.40;54.78;;;;;;;-6.29;100.00;100687.25;5039319;28;20045;-70
2022/12/16 01:59:42;;;;;;;116.32;57.33;;;;;;;-6.30;100.00;100691.06;5035842;28;20429;-72
2022/12/16 02:02:09;;;;;;;120.32;57.08;;;;;;;-6.29;100.00;100689.94;5033881;28;20066;-72
2022/12/16 02:05:19;;;;;;;116.80;57.78;;;;;;;-6.32;100.00;100693.22;5030065;28;20068;-71
2022/12/16 02:07:24;;;;;;;121.10;55.95;;;;;;;-6.32;100.00;100695.09;5022794;28;20049;-72
2022/12/16 02:09:52;;;;;;;120.63;59.08;;;;;;;-6.28;100.00;100691.56;5024685;28;20050;-73
2022/12/16 02:12:29;;;;;;;135.15;62.00;;;;;;;-6.30;100.00;100684.84;5036733;28;20477;-71
2022/12/16 02:15:17;;;;;;;137.48;61.83;;;;;;;-6.32;100.00;100690.53;5033433;28;20126;-73
2022/12/16 02:17:58;;;;;;;122.32;57.78;;;;;;;-6.30;100.00;100691.06;5025908;28;20623;-71
2022/12/16 02:20:44;;;;;;;126.53;57.25;;;;;;;-6.27;100.00;100701.25;5022081;28;20053;-71
2022/12/16 02:23:13;;;;;;;;;;;;;;;-6.31;100.00;100694.81;5032726;28;20779;-69
2022/12/16 02:25:58;;;;;;;125.25;57.92;;;;;;;-6.30;100.00;100688.34;5032996;28;19920;-71
2022/12/16 02:29:01;;;;;;;115.57;55.58;;;;;;;-6.31;100.00;100688.66;5035603;28;20041;-71
2022/12/16 02:31:40;;;;;;;122.45;55.30;;;;;;;-6.34;100.00;100692.69;5032730;28;20048;-71
2022/12/16 02:34:09;;;;;;;119.78;57.22;;;;;;;-6.34;100.00;100694.59;5029902;28;20045;-73
2022/12/16 02:37:01;;;;;;;127.93;58.35;;;;;;;-6.34;100.00;100698.06;5029466;28;20054;-71
2022/12/16 02:39:32;;;;;;;122.72;57.95;;;;;;;-6.34;100.00;100686.53;5033724;28;20050;-72
2022/12/16 02:42:18;;;;;;;113.28;55.42;;;;;;;-6.36;100.00;100697.56;5015627;28;20052;-72
2022/12/16 02:44:59;;;;;;;114.55;55.60;;;;;;;-6.36;100.00;100686.00;5023938;28;20041;-72
2022/12/16 02:47:25;;;;;;;130.70;59.05;;;;;;;-6.35;100.00;100688.41;5023767;28;20041;-73
2022/12/16 02:49:54;;;;;;;117.13;57.58;;;;;;;-6.38;100.00;100688.97;5033153;28;20114;-72
2022/12/16 02:52:27;;;;;;;125.90;59.97;;;;;;;-6.39;100.00;100695.44;5028306;28;20077;-72
2022/12/16 02:55:00;;;;;;;124.72;60.85;;;;;;;-6.41;100.00;100696.84;5019832;28;20046;-71
2022/12/16 02:57:26;;;;;;;120.18;58.47;;;;;;;-6.44;100.00;100705.47;5024494;28;20038;-72
2022/12/16 03:00:04;;;;;;;125.10;59.67;;;;;;;-6.46;100.00;100700.38;5025106;28;20042;-70
2022/12/16 03:02:42;;;;;;;112.93;52.80;;;;;;;-6.54;100.00;100682.16;5034232;28;20045;-71
2022/12/16 03:05:49;;;;;;;122.93;55.60;;;;;;;-6.47;100.00;100706.84;5031922;28;20041;-71
2022/12/16 03:08:25;;;;;;;124.28;57.08;;;;;;;-6.49;100.00;100700.13;5012466;28;20046;-72
2022/12/16 03:10:56;;;;;;;120.53;58.50;;;;;;;-6.56;100.00;100705.88;5025660;28;20518;-72
2022/12/16 03:13:24;;;;;;;118.68;53.78;;;;;;;-6.60;100.00;100704.03;5010824;28;20061;-71
2022/12/16 03:15:53;;;;;;;122.18;59.75;;;;;;;-6.67;100.00;100704.38;5022703;28;20413;-72
2022/12/16 03:18:21;;;;;;;129.73;57.72;;;;;;;-6.70;100.00;100710.31;5029366;28;20053;-72
2022/12/16 03:20:59;;;;;;;114.10;56.05;;;;;;;-6.65;100.00;100706.78;5028085;28;20053;-71
2022/12/16 03:23:36;;;;;;;118.15;57.78;;;;;;;-6.61;100.00;100708.59;5029218;28;20053;-72
2022/12/16 03:26:09;;;;;;;120.00;58.80;;;;;;;-6.73;100.00;100688.53;5008629;28;20061;-71
2022/12/16 03:28:51;;;;;;;125.78;59.15;;;;;;;-6.65;100.00;100701.41;5028215;28;20041;-71
2022/12/16 03:31:55;;;;;;;127.00;60.75;;;;;;;-6.63;100.00;100710.78;5028577;28;20111;-71
2022/12/16 03:34:31;;;;;;;114.60;54.40;;;;;;;-6.76;100.00;100708.75;5029394;28;20064;-72
2022/12/16 03:37:03;;;;;;;117.95;57.00;;;;;;;-6.78;100.00;100713.59;5029249;28;20049;-74
2022/12/16 03:39:33;;;;;;;126.10;57.80;;;;;;;-6.74;100.00;100721.91;5030384;28;20041;-69
2022/12/16 03:42:02;;;;;;;107.70;54.85;;;;;;;-6.66;100.00;100721.28;5028487;28;20041;-71
2022/12/16 03:44:29;;;;;;;125.60;57.85;;;;;;;-6.65;100.00;100721.00;5026514;28;20045;-71
2022/12/16 03:46:55;;;;;;;121.55;58.72;;;;;;;-6.68;100.00;100726.19;5029041;28;20083;-72
2022/12/16 03:49:22;;;;;;;130.90;60.63;;;;;;;-6.73;100.00;100727.03;5028124;28;20084;-72
2022/12/16 03:51:49;;;;;;;119.10;59.58;;;;;;;-6.74;100.00;100725.41;5032728;28;20052;-72
2022/12/16 03:54:17;;;;;;;128.35;59.65;;;;;;;-6.77;100.00;100726.00;5026981;28;20045;-72
2022/12/16 03:56:44;;;;;;;130.50;58.92;;;;;;;-6.77;100.00;100730.56;5028409;28;20584;-73
2022/12/16 03:59:10;;;;;;;123.47;59.38;;;;;;;-6.85;100.00;100731.94;5033481;28;20823;-71
2022/12/16 04:01:37;;;;;;;123.40;58.53;;;;;;;-6.83;100.00;100737.06;5027306;28;20049;-71
2022/12/16 04:04:05;;;;;;;125.57;59.28;;;;;;;-6.85;100.00;100720.41;5028540;28;20064;-71
2022/12/16 04:06:31;;;;;;;127.38;59.85;;;;;;;-6.84;100.00;100727.38;5023518;28;20041;-71
2022/12/16 04:08:58;;;;;;;122.00;58.72;;;;;;;-6.85;100.00;100718.50;5033729;28;20541;-72
2022/12/16 04:25:26;;;;;;;112.15;55.35;;;;;;;-6.83;100.00;100729.00;5035982;28;20046;-72
2022/12/16 04:27:53;;;;;;;122.63;55.53;;;;;;;-6.86;100.00;100727.66;5037635;28;20047;-71
2022/12/16 04:30:20;;;;;;;126.20;58.53;;;;;;;-6.80;100.00;100731.94;5020386;28;20046;-72
